Time;durP1;ratioP1;P1;durP2;ratioP2;P2;SDS_P1;SDS_P2;PMS_P1;PMS_P2;Temp;Humidity;BMP_temperature;BMP_pressure;BME280_temperature;BME280_humidity;BME280_pressure;Samples;Min_cycle;Max_cycle;Signal;HPM_P1;HPM_P2
2022/12/17 13:06:53;;;;;;;40.53;28.05;;;;;;;-4.47;100.00;102459.88;4980879;28;20189;-49
2022/12/17 13:09:27;;;;;;;48.60;29.55;;;;;;;-4.52;100.00;102453.53;4979784;28;20178;-49
2022/12/17 13:11:56;;;;;;;45.95;30.02;;;;;;;-4.47;100.00;102467.72;4976714;28;20221;-49
2022/12/17 13:14:35;;;;;;;43.70;29.58;;;;;;;-4.48;100.00;102479.91;4991709;28;20723;-49
2022/12/17 13:17:26;;;;;;;46.25;28.63;;;;;;;-4.46;100.00;102475.66;4979118;28;20656;-49
2022/12/17 13:19:55;;;;;;;46.03;29.42;;;;;;;-4.48;100.00;102469.44;4981289;28;20246;-48
2022/12/17 13:22:20;;;;;;;47.33;28.92;;;;;;;-4.47;100.00;102466.00;4975840;28;20249;-48
2022/12/17 13:24:48;;;;;;;41.95;27.42;;;;;;;-4.62;100.00;102468.75;4979299;28;20213;-49
2022/12/17 13:27:35;;;;;;;43.90;28.95;;;;;;;-4.50;100.00;102464.94;4988419;28;20289;-50
2022/12/17 13:30:16;;;;;;;46.88;28.60;;;;;;;-4.60;100.00;102472.31;4983485;28;20244;-49
2022/12/17 13:33:22;;;;;;;44.50;29.13;;;;;;;-4.62;100.00;102471.34;4982299;28;20691;-49
2022/12/17 13:36:12;;;;;;;40.40;27.88;;;;;;;-4.54;100.00;102469.13;4981842;28;20672;-49
2022/12/17 13:38:56;;;;;;;38.67;26.58;;;;;;;-4.47;100.00;102463.38;4980330;28;20198;-50
2022/12/17 13:41:28;;;;;;;39.70;27.60;;;;;;;-4.54;100.00;102455.16;4981934;28;20205;-50
2022/12/17 13:43:57;;;;;;;41.00;28.40;;;;;;;-4.65;100.00;102468.59;4982461;28;20192;-48
2022/12/17 13:46:24;;;;;;;41.22;28.48;;;;;;;-4.69;100.00;102469.25;4977182;28;20210;-48
2022/12/17 13:48:58;;;;;;;40.67;26.50;;;;;;;-4.70;100.00;102459.63;4980541;28;20214;-48
2022/12/17 13:51:27;;;;;;;41.38;27.80;;;;;;;-4.86;100.00;102462.28;4977535;28;20210;-46
2022/12/17 13:53:58;;;;;;;42.83;28.65;;;;;;;-4.81;100.00;102468.63;4982321;28;20903;-48
2022/12/17 13:56:32;;;;;;;47.65;28.80;;;;;;;-4.81;100.00;102461.72;4982807;28;20191;-48
2022/12/17 13:59:01;;;;;;;44.08;28.48;;;;;;;-4.79;100.00;102474.84;4978666;28;20281;-50
2022/12/17 14:01:27;;;;;;;46.15;28.67;;;;;;;-4.92;100.00;102470.72;4982347;28;20202;-48
2022/12/17 14:03:56;;;;;;;43.90;29.52;;;;;;;-4.91;100.00;102464.66;4977896;28;20189;-48
2022/12/17 14:06:24;;;;;;;45.38;28.58;;;;;;;-4.88;100.00;102469.16;4982328;28;20259;-50
2022/12/17 14:08:52;;;;;;;43.35;27.90;;;;;;;-4.93;100.00;102475.88;4983834;28;20225;-48
2022/12/17 14:14:11;;;;;;;43.42;28.92;;;;;;;-4.93;100.00;102483.72;4979020;28;20657;-48
2022/12/17 14:16:39;;;;;;;46.78;28.38;;;;;;;-5.08;100.00;102484.69;4984150;28;20170;-51
2022/12/17 14:19:08;;;;;;;46.78;29.35;;;;;;;-5.04;100.00;102489.25;4983920;28;20231;-47
2022/12/17 14:21:36;;;;;;;44.65;28.40;;;;;;;-4.99;100.00;102485.16;4979090;28;20220;-47
2022/12/17 14:24:03;;;;;;;41.15;28.83;;;;;;;-5.02;100.00;102477.19;4981698;28;20182;-48
2022/12/17 14:26:28;;;;;;;45.22;28.55;;;;;;;-4.99;100.00;102484.28;4980753;28;20194;-48
2022/12/17 14:28:54;;;;;;;46.83;29.88;;;;;;;-5.08;100.00;102495.16;4979876;28;20206;-49
2022/12/17 14:31:28;;;;;;;47.63;30.40;;;;;;;-5.10;100.00;102488.94;4982014;28;20209;-48
2022/12/17 14:34:09;;;;;;;42.50;28.35;;;;;;;-5.07;100.00;102491.72;4983489;28;20275;-49
2022/12/17 14:36:37;;;;;;;41.85;28.58;;;;;;;-5.19;100.00;102485.84;4982230;28;20620;-47
2022/12/17 14:39:25;;;;;;;43.70;28.60;;;;;;;-5.20;100.00;102494.53;4977799;28;20263;-49
2022/12/17 14:44:59;;;;;;;44.95;27.13;;;;;;;-5.21;100.00;102492.72;4977516;28;20192;-48
2022/12/17 14:47:33;;;;;;;45.20;29.80;;;;;;;-5.28;100.00;102498.44;4996019;28;20280;-49
2022/12/17 14:50:24;;;;;;;46.75;29.88;;;;;;;-5.35;100.00;102497.22;4977828;28;20181;-48
2022/12/17 14:52:52;;;;;;;41.97;28.52;;;;;;;-5.36;100.00;102497.13;4982438;28;20169;-48
2022/12/17 14:55:34;;;;;;;47.70;29.80;;;;;;;-5.44;100.00;102507.16;4978434;28;20177;-48
2022/12/17 14:58:12;;;;;;;48.70;29.52;;;;;;;-5.46;100.00;102507.06;4979054;28;20182;-49
2022/12/17 15:00:43;;;;;;;48.40;29.58;;;;;;;-5.47;100.00;102513.09;4973983;28;20228;-49
2022/12/17 15:03:14;;;;;;;51.47;31.10;;;;;;;-5.43;100.00;102499.38;4980943;28;20193;-48
2022/12/17 15:05:40;;;;;;;44.55;29.75;;;;;;;-5.46;100.00;102501.84;4982614;28;20217;-48
2022/12/17 15:08:05;;;;;;;48.17;30.52;;;;;;;-5.40;100.00;102498.66;4979163;28;20211;-51
2022/12/17 15:10:31;;;;;;;45.50;30.25;;;;;;;-5.41;100.00;102512.53;4981421;28;20181;-47
2022/12/17 15:12:56;;;;;;;44.45;28.60;;;;;;;-5.43;100.00;102515.06;4978055;28;20177;-47
2022/12/17 15:15:22;;;;;;;52.92;29.15;;;;;;;-5.51;100.00;102508.56;4981178;28;20193;-48
2022/12/17 15:17:47;;;;;;;44.97;29.45;;;;;;;-5.47;100.00;102518.31;4983283;28;20177;-47
2022/12/17 15:20:19;;;;;;;52.03;30.45;;;;;;;-5.50;100.00;102512.94;4980286;28;20212;-49
2022/12/17 15:22:45;;;;;;;45.70;29.88;;;;;;;-5.47;100.00;102523.53;4982672;28;20190;-48
2022/12/17 15:25:13;;;;;;;48.30;30.88;;;;;;;-5.58;100.00;102524.69;4977270;28;20188;-50
2022/12/17 15:27:39;;;;;;;42.72;29.02;;;;;;;-5.50;100.00;102532.94;4982580;28;20205;-50
2022/12/17 15:30:05;;;;;;;47.25;30.88;;;;;;;-5.48;100.00;102521.75;4978679;28;20181;-48
2022/12/17 15:32:31;;;;;;;46.95;30.02;;;;;;;-5.42;100.00;102523.81;4977889;28;20221;-49
2022/12/17 15:34:56;;;;;;;50.38;32.75;;;;;;;-5.52;100.00;102529.34;4985047;28;20173;-46
2022/12/17 15:37:21;;;;;;;51.70;33.35;;;;;;;-5.47;100.00;102523.53;4974783;28;20194;-47
2022/12/17 15:39:47;;;;;;;81.93;47.53;;;;;;;-5.45;100.00;102519.31;4976993;28;20561;-49
2022/12/17 15:44:57;;;;;;;170.65;97.70;;;;;;;-5.47;100.00;102520.94;4979451;28;20615;-48
2022/12/17 15:47:22;;;;;;;114.57;67.68;;;;;;;-5.62;100.00;102518.41;4989992;28;20280;-48
2022/12/17 15:49:47;;;;;;;128.93;67.45;;;;;;;-5.53;100.00;102519.69;4984291;28;20201;-50
2022/12/17 15:52:14;;;;;;;58.20;34.17;;;;;;;-5.54;100.00;102529.25;4981877;28;20197;-47
2022/12/17 15:54:42;;;;;;;55.20;32.83;;;;;;;-5.73;100.00;102522.13;4984666;28;20189;-48
2022/12/17 15:57:09;;;;;;;54.50;32.53;;;;;;;-5.67;100.00;102535.50;4985194;28;20178;-48
2022/12/17 15:59:34;;;;;;;61.88;36.63;;;;;;;-5.63;100.00;102536.59;4981782;28;20241;-47
2022/12/17 16:02:00;;;;;;;48.78;31.65;;;;;;;-5.71;100.00;102530.94;4984381;28;20213;-49
2022/12/17 16:04:27;;;;;;;96.20;58.17;;;;;;;-5.68;100.00;102544.19;4986725;28;20205;-49
2022/12/17 16:06:52;;;;;;;47.90;31.52;;;;;;;-5.87;100.00;102542.22;4983734;28;20186;-48
2022/12/17 16:09:18;;;;;;;47.92;30.25;;;;;;;-6.03;100.00;102555.28;4984963;28;20249;-47
2022/12/17 16:11:44;;;;;;;46.55;29.75;;;;;;;-6.00;100.00;102550.22;4979894;28;20289;-49
2022/12/17 16:14:09;;;;;;;65.72;43.67;;;;;;;-6.05;100.00;102539.53;4985103;28;20652;-47
2022/12/17 16:16:34;;;;;;;48.17;31.40;;;;;;;-6.09;100.00;102563.63;4982367;28;20641;-47
2022/12/17 16:19:01;;;;;;;49.78;31.13;;;;;;;-6.02;100.00;102554.44;4979329;28;20564;-47
2022/12/17 16:21:27;;;;;;;133.20;78.38;;;;;;;-6.00;100.00;102545.00;4981481;28;20252;-48
2022/12/17 16:23:53;;;;;;;83.50;52.65;;;;;;;-5.90;100.00;102549.00;4977723;28;20178;-47
2022/12/17 16:26:18;;;;;;;56.72;34.17;;;;;;;-6.00;100.00;102558.06;4987251;28;20205;-46
2022/12/17 16:28:44;;;;;;;50.53;30.80;;;;;;;-5.92;100.00;102550.63;4986034;28;20267;-49
2022/12/17 16:31:12;;;;;;;50.83;30.98;;;;;;;-5.99;100.00;102549.44;4989067;28;20268;-50
2022/12/17 16:33:40;;;;;;;54.72;31.83;;;;;;;-5.93;100.00;102556.66;4978997;28;20552;-50
2022/12/17 16:36:07;;;;;;;50.13;31.17;;;;;;;-5.80;100.00;102561.75;4984330;28;20599;-49
2022/12/17 16:38:33;;;;;;;48.45;30.48;;;;;;;-5.89;100.00;102574.28;4983399;28;20182;-49
2022/12/17 16:41:00;;;;;;;53.53;32.05;;;;;;;-5.89;100.00;102562.13;4980451;28;20204;-51
2022/12/17 16:43:27;;;;;;;97.50;53.28;;;;;;;-5.86;100.00;102559.72;4988987;28;20818;-49
2022/12/17 16:45:53;;;;;;;51.13;33.67;;;;;;;-5.85;100.00;102568.44;4981724;28;20539;-47
2022/12/17 16:48:21;;;;;;;62.35;36.88;;;;;;;-5.89;100.00;102569.97;4983011;28;20224;-51
2022/12/17 16:50:48;;;;;;;83.18;48.72;;;;;;;-5.93;100.00;102575.81;4981264;28;20213;-49
2022/12/17 16:53:14;;;;;;;64.32;35.20;;;;;;;-5.91;100.00;102568.97;4983444;28;20724;-48
2022/12/17 16:55:44;;;;;;;58.03;33.13;;;;;;;-6.07;100.00;102563.75;4982299;28;20200;-48
2022/12/17 16:58:10;;;;;;;52.70;33.08;;;;;;;-6.11;100.00;102559.16;4982754;28;20653;-47
2022/12/17 17:00:36;;;;;;;52.42;33.00;;;;;;;-6.14;100.00;102559.88;4983160;28;20206;-48
2022/12/17 17:03:04;;;;;;;57.83;36.15;;;;;;;-6.05;100.00;102557.78;4976418;28;20172;-47
2022/12/17 17:05:34;;;;;;;55.47;33.92;;;;;;;-6.01;100.00;102574.53;4978934;28;20193;-49
2022/12/17 17:08:00;;;;;;;57.28;36.00;;;;;;;-5.99;100.00;102570.31;4982992;28;20668;-48
2022/12/17 17:10:26;;;;;;;55.90;32.22;;;;;;;-5.97;100.00;102589.53;4977077;28;20200;-48
2022/12/17 17:12:53;;;;;;;51.72;31.48;;;;;;;-5.97;100.00;102586.91;4983098;28;20188;-48
2022/12/17 17:15:19;;;;;;;53.95;33.40;;;;;;;-6.08;100.00;102574.97;4981445;28;20193;-48
2022/12/17 17:17:45;;;;;;;72.97;41.90;;;;;;;-6.05;100.00;102580.38;4977696;28;20200;-47
2022/12/17 17:20:11;;;;;;;53.88;33.30;;;;;;;-6.10;100.00;102573.97;4986747;28;20664;-48
2022/12/17 17:22:37;;;;;;;50.85;32.28;;;;;;;-6.16;100.00;102584.09;4981227;28;20201;-49
2022/12/17 17:25:03;;;;;;;52.38;33.25;;;;;;;-6.18;100.00;102565.72;4982477;28;20198;-49
2022/12/17 17:27:29;;;;;;;65.63;38.50;;;;;;;-6.19;100.00;102570.84;4979525;28;20209;-48
2022/12/17 17:29:55;;;;;;;102.57;50.25;;;;;;;-6.18;100.00;102580.47;4985051;28;20703;-47
2022/12/17 17:32:21;;;;;;;47.53;31.05;;;;;;;-6.32;100.00;102585.81;4981520;28;20218;-49
2022/12/17 17:34:47;;;;;;;52.83;31.27;;;;;;;-6.21;100.00;102586.41;4984349;28;20217;-49
2022/12/17 17:37:13;;;;;;;45.50;30.02;;;;;;;-6.46;100.00;102598.00;4982877;28;20206;-47
2022/12/17 17:39:38;;;;;;;47.40;28.95;;;;;;;-6.45;100.00;102586.78;4981330;28;20201;-49
2022/12/17 17:42:04;;;;;;;68.40;49.13;;;;;;;-6.49;100.00;102603.03;4979729;28;20206;-48
2022/12/17 17:44:29;;;;;;;49.08;34.30;;;;;;;-6.19;100.00;102600.44;4981986;28;20555;-48
2022/12/17 17:46:55;;;;;;;53.50;35.53;;;;;;;-6.14;100.00;102596.41;4980051;28;20655;-48
2022/12/17 17:49:21;;;;;;;54.03;29.83;;;;;;;-6.23;100.00;102599.38;4982516;28;20193;-51
2022/12/17 17:51:46;;;;;;;40.53;27.08;;;;;;;-6.14;100.00;102596.41;4976230;28;20203;-49
2022/12/17 17:54:12;;;;;;;40.65;24.83;;;;;;;-6.06;100.00;102591.59;4982679;28;20216;-49
2022/12/17 17:56:39;;;;;;;40.63;26.45;;;;;;;-6.06;100.00;102595.13;4988896;28;20247;-50
2022/12/17 17:59:08;;;;;;;38.67;25.48;;;;;;;-5.96;100.00;102598.28;4980395;28;20625;-48
2022/12/17 18:01:42;;;;;;;39.35;26.20;;;;;;;-6.05;100.00;102604.75;4985218;28;20368;-48
2022/12/17 18:04:11;;;;;;;37.45;24.08;;;;;;;-5.99;100.00;102595.47;4982474;28;20633;-49
2022/12/17 18:06:39;;;;;;;39.78;26.52;;;;;;;-5.90;100.00;102606.44;4985600;28;20181;-48
2022/12/17 18:09:06;;;;;;;39.05;26.75;;;;;;;-5.89;100.00;102593.44;4978583;28;20198;-48
2022/12/17 18:11:32;;;;;;;46.15;27.55;;;;;;;-5.85;100.00;102600.66;4985983;28;20209;-49
2022/12/17 18:14:00;;;;;;;36.50;24.52;;;;;;;-5.82;100.00;102613.84;4979538;28;20633;-48
2022/12/17 18:16:36;;;;;;;38.15;25.10;;;;;;;-5.83;100.00;102608.56;4983597;28;20251;-48
2022/12/17 18:19:25;;;;;;;70.68;46.33;;;;;;;-5.77;100.00;102605.38;4981620;28;20181;-48
2022/12/17 18:21:51;;;;;;;41.97;25.77;;;;;;;-5.75;100.00;102622.03;4981044;28;20308;-47
2022/12/17 18:24:22;;;;;;;35.15;24.23;;;;;;;-5.69;100.00;102596.28;4980408;28;20562;-48
2022/12/17 18:26:49;;;;;;;35.78;24.20;;;;;;;-5.70;100.00;102610.16;4982134;28;20795;-48
2022/12/17 18:29:17;;;;;;;38.00;24.05;;;;;;;-5.73;100.00;102616.09;4974471;28;20181;-48
2022/12/17 18:31:43;;;;;;;39.85;25.95;;;;;;;-5.63;100.00;102612.31;4979028;28;20213;-49
2022/12/17 18:34:12;;;;;;;53.00;30.67;;;;;;;-5.67;100.00;102626.00;4978966;28;20649;-49
2022/12/17 18:36:39;;;;;;;50.20;31.83;;;;;;;-5.53;100.00;102626.75;4978307;28;20178;-49
2022/12/17 18:39:10;;;;;;;39.67;25.67;;;;;;;-5.61;100.00;102616.81;4978183;28;20189;-48
2022/12/17 18:44:20;;;;;;;41.80;24.65;;;;;;;-5.60;100.00;102612.47;4978315;28;20578;-49
2022/12/17 18:46:46;;;;;;;61.85;37.75;;;;;;;-5.53;100.00;102605.88;4984236;28;20177;-49
2022/12/17 18:49:15;;;;;;;39.90;26.67;;;;;;;-5.51;100.00;102609.47;4985378;28;20785;-48
2022/12/17 18:51:42;;;;;;;39.58;24.63;;;;;;;-5.57;100.00;102607.44;4981154;28;20284;-48
2022/12/17 18:54:12;;;;;;;71.85;39.47;;;;;;;-5.52;100.00;102603.34;4980375;28;20181;-47
2022/12/17 18:56:38;;;;;;;43.97;28.48;;;;;;;-5.47;100.00;102614.94;4983413;28;20283;-48
2022/12/17 18:59:04;;;;;;;79.38;44.50;;;;;;;-5.45;100.00;102612.44;4980298;28;20213;-48
2022/12/17 19:01:32;;;;;;;51.40;30.38;;;;;;;-5.47;100.00;102617.56;4980663;28;20295;-47
2022/12/17 19:04:01;;;;;;;67.18;38.20;;;;;;;-5.49;100.00;102611.34;4984787;28;20189;-47
2022/12/17 19:06:27;;;;;;;40.83;25.23;;;;;;;-5.50;100.00;102624.34;4980166;28;20220;-49
2022/12/17 19:08:52;;;;;;;70.22;42.38;;;;;;;-5.49;100.00;102627.03;4980662;28;20292;-47
2022/12/17 19:11:20;;;;;;;35.38;22.10;;;;;;;-5.51;100.00;102632.97;4980233;28;20636;-48
2022/12/17 19:13:47;;;;;;;46.00;28.63;;;;;;;-5.50;100.00;102633.06;4982783;28;20181;-48
2022/12/17 19:16:16;;;;;;;37.42;24.02;;;;;;;-5.55;100.00;102651.91;4973931;28;20199;-46
2022/12/17 19:18:42;;;;;;;37.17;22.42;;;;;;;-5.55;100.00;102651.91;4977374;28;20193;-49
2022/12/17 19:21:11;;;;;;;36.03;22.92;;;;;;;-5.60;100.00;102649.94;4984561;28;20407;-48
2022/12/17 19:23:37;;;;;;;39.83;27.85;;;;;;;-5.55;100.00;102659.72;4979965;28;20516;-47
2022/12/17 19:26:11;;;;;;;47.60;27.35;;;;;;;-5.49;100.00;102647.03;4979550;28;20181;-49
2022/12/17 19:28:42;;;;;;;37.10;23.05;;;;;;;-5.51;100.00;102648.66;4984787;28;20272;-50
2022/12/17 19:31:09;;;;;;;40.13;27.15;;;;;;;-5.55;100.00;102652.81;4974998;28;20206;-49
2022/12/17 19:33:35;;;;;;;34.25;21.75;;;;;;;-5.50;100.00;102656.56;4984089;28;20257;-47
2022/12/17 19:36:09;;;;;;;32.20;21.15;;;;;;;-5.42;100.00;102651.81;4978429;28;20328;-46
2022/12/17 19:38:35;;;;;;;39.33;25.17;;;;;;;-5.45;100.00;102672.50;4979640;28;20513;-48
2022/12/17 19:41:14;;;;;;;31.67;20.45;;;;;;;-5.51;100.00;102674.75;4982099;28;20283;-46
2022/12/17 19:43:41;;;;;;;32.60;20.27;;;;;;;-5.55;100.00;102668.50;4983771;28;20191;-47
2022/12/17 19:46:14;;;;;;;48.03;27.48;;;;;;;-5.55;100.00;102668.50;4984948;28;20277;-47
2022/12/17 19:48:41;;;;;;;64.70;37.85;;;;;;;-5.57;100.00;102656.16;4980873;28;20193;-48
2022/12/17 19:51:08;;;;;;;28.20;19.13;;;;;;;-5.64;100.00;102662.72;4980543;28;20241;-48
2022/12/17 19:53:35;;;;;;;35.67;22.00;;;;;;;-5.60;100.00;102672.53;4980817;28;20174;-46
2022/12/17 19:56:11;;;;;;;78.68;45.33;;;;;;;-5.60;100.00;102659.47;4975230;28;20653;-49
2022/12/17 19:58:39;;;;;;;41.30;27.02;;;;;;;-5.63;100.00;102659.31;4980483;28;20594;-47
2022/12/17 20:01:09;;;;;;;54.78;31.92;;;;;;;-5.58;100.00;102660.47;4977144;28;20575;-48
2022/12/17 20:03:36;;;;;;;36.30;22.70;;;;;;;-5.61;100.00;102661.19;4975594;28;20185;-47
2022/12/17 20:06:02;;;;;;;95.97;57.53;;;;;;;-5.60;100.00;102665.63;4978311;28;20193;-49
2022/12/17 20:08:28;;;;;;;33.85;21.13;;;;;;;-5.64;100.00;102671.47;4985215;28;20212;-46
2022/12/17 20:10:54;;;;;;;44.70;26.88;;;;;;;-5.58;100.00;102670.91;4983773;28;20614;-48
2022/12/17 20:13:20;;;;;;;34.28;20.92;;;;;;;-5.60;100.00;102669.91;4981072;28;20196;-48
2022/12/17 20:15:45;;;;;;;32.85;21.92;;;;;;;-5.59;100.00;102687.41;4981491;28;20174;-46
2022/12/17 20:18:11;;;;;;;28.67;18.98;;;;;;;-5.60;100.00;102681.28;4975556;28;20525;-47
2022/12/17 20:20:36;;;;;;;35.95;20.30;;;;;;;-5.60;100.00;102670.84;4982949;28;20306;-42
2022/12/17 20:23:02;;;;;;;33.00;22.50;;;;;;;-5.62;100.00;102680.28;4981341;28;20229;-41
2022/12/17 20:25:28;;;;;;;32.83;22.67;;;;;;;-5.60;100.00;102676.06;4980477;28;20201;-44
2022/12/17 20:27:54;;;;;;;47.38;28.33;;;;;;;-5.61;100.00;102669.03;4977968;28;20297;-46
2022/12/17 20:30:23;;;;;;;99.25;52.60;;;;;;;-5.59;100.00;102671.72;4983245;28;20213;-45
2022/12/17 20:32:52;;;;;;;40.67;24.98;;;;;;;-5.62;100.00;102655.88;4987232;28;20205;-46
2022/12/17 20:35:19;;;;;;;44.50;30.45;;;;;;;-5.57;100.00;102674.44;4987867;28;20278;-47
2022/12/17 20:37:44;;;;;;;45.28;27.70;;;;;;;-5.59;100.00;102675.22;4986515;28;20170;-45
2022/12/17 20:40:10;;;;;;;33.97;21.20;;;;;;;-5.63;100.00;102669.75;4987503;28;20171;-47
2022/12/17 20:42:35;;;;;;;37.53;19.85;;;;;;;-5.57;100.00;102683.16;4985913;28;20221;-46
2022/12/17 20:45:01;;;;;;;31.10;19.23;;;;;;;-5.51;100.00;102682.59;4983981;28;20283;-46
2022/12/17 20:47:26;;;;;;;27.80;18.77;;;;;;;-5.62;100.00;102668.94;4985333;28;20684;-45
2022/12/17 20:49:52;;;;;;;26.42;18.88;;;;;;;-5.61;100.00;102686.41;4985498;28;20527;-45
2022/12/17 20:52:18;;;;;;;32.90;21.85;;;;;;;-5.62;100.00;102682.91;4982857;28;20205;-44
2022/12/17 20:54:43;;;;;;;28.75;19.27;;;;;;;-5.67;100.00;102689.56;4988973;28;20223;-46
2022/12/17 20:57:09;;;;;;;30.13;20.50;;;;;;;-5.67;100.00;102693.88;4978072;28;20667;-45
2022/12/17 20:59:34;;;;;;;34.70;19.45;;;;;;;-5.69;100.00;102701.63;4983289;28;20253;-46
2022/12/17 21:02:00;;;;;;;38.25;24.00;;;;;;;-5.68;100.00;102705.16;4976624;28;20656;-45
2022/12/17 21:04:25;;;;;;;31.33;19.58;;;;;;;-5.70;100.00;102704.16;4980517;28;20189;-46
2022/12/17 21:06:51;;;;;;;28.50;18.40;;;;;;;-5.68;100.00;102697.31;4987870;28;20280;-45
2022/12/17 21:09:21;;;;;;;40.83;26.25;;;;;;;-5.67;100.00;102696.50;4984285;28;20209;-46
2022/12/17 21:11:47;;;;;;;29.98;19.70;;;;;;;-5.68;100.00;102710.38;4981686;28;20212;-45
2022/12/17 21:14:14;;;;;;;36.63;23.33;;;;;;;-5.69;100.00;102693.78;4982556;28;20190;-47
2022/12/17 21:16:41;;;;;;;31.02;19.67;;;;;;;-5.72;100.00;102700.56;4984178;28;20354;-46
2022/12/17 21:19:08;;;;;;;81.47;42.33;;;;;;;-5.68;100.00;102693.00;4984316;28;20173;-46
2022/12/17 21:21:36;;;;;;;32.13;21.80;;;;;;;-5.62;100.00;102693.34;4989677;28;20340;-45
2022/12/17 21:24:02;;;;;;;29.33;20.00;;;;;;;-5.67;100.00;102688.66;4985682;28;20197;-47
2022/12/17 21:26:31;;;;;;;30.55;19.33;;;;;;;-5.67;100.00;102688.66;4982938;28;20189;-47
2022/12/17 21:28:57;;;;;;;28.73;19.38;;;;;;;-5.70;100.00;102692.00;4986207;28;20217;-45
2022/12/17 21:31:26;;;;;;;32.22;20.25;;;;;;;-5.62;100.00;102690.75;4981725;28;20230;-46
2022/12/17 21:33:54;;;;;;;30.42;19.27;;;;;;;-5.59;100.00;102711.78;4985759;28;20193;-48
2022/12/17 21:36:21;;;;;;;26.95;18.83;;;;;;;-5.53;100.00;102700.81;4985056;28;20181;-46
2022/12/17 21:38:48;;;;;;;30.83;18.80;;;;;;;-5.55;100.00;102710.28;4978975;28;20196;-44
2022/12/17 21:41:15;;;;;;;36.17;23.05;;;;;;;-5.54;100.00;102708.56;4987749;28;20294;-46
2022/12/17 21:43:41;;;;;;;31.60;21.52;;;;;;;-5.50;100.00;102710.53;4981529;28;20564;-45
2022/12/17 21:46:08;;;;;;;31.67;21.48;;;;;;;-5.49;100.00;102705.38;4983743;28;20181;-44
2022/12/17 21:48:36;;;;;;;29.90;20.23;;;;;;;-5.50;100.00;102707.91;4984806;28;20213;-45
2022/12/17 21:51:04;;;;;;;36.42;23.17;;;;;;;-5.44;100.00;102713.50;4977244;28;20240;-46
2022/12/17 21:53:29;;;;;;;47.00;28.02;;;;;;;-5.46;100.00;102713.41;4986021;28;20273;-46
2022/12/17 21:56:06;;;;;;;50.85;27.25;;;;;;;-5.43;100.00;102715.28;4979689;28;20201;-46
2022/12/17 21:58:32;;;;;;;44.65;25.40;;;;;;;-5.42;100.00;102697.09;4982022;28;20239;-47
2022/12/17 22:01:06;;;;;;;42.30;29.88;;;;;;;-5.43;100.00;102697.91;4998803;28;20208;-47
2022/12/17 22:03:31;;;;;;;31.08;22.52;;;;;;;-5.39;100.00;102701.59;4988842;28;20220;-48
2022/12/17 22:06:04;;;;;;;28.70;20.38;;;;;;;-5.32;100.00;102705.44;4982739;28;20229;-46
2022/12/17 22:08:30;;;;;;;35.85;22.90;;;;;;;-5.30;100.00;102706.44;4981566;28;20217;-45
2022/12/17 22:10:55;;;;;;;36.85;24.38;;;;;;;-5.31;100.00;102710.78;4983097;28;20562;-47
2022/12/17 22:16:06;;;;;;;34.35;20.73;;;;;;;-5.22;100.00;102718.22;4985643;28;20181;-47
2022/12/17 22:18:31;;;;;;;34.95;23.00;;;;;;;-5.21;100.00;102720.91;4981831;28;20536;-46
2022/12/17 22:20:58;;;;;;;40.25;23.80;;;;;;;-5.19;100.00;102734.06;4984208;28;20205;-44
2022/12/17 22:23:24;;;;;;;30.40;21.55;;;;;;;-5.13;100.00;102739.66;4983351;28;20204;-46
2022/12/17 22:25:50;;;;;;;39.28;24.17;;;;;;;-5.20;100.00;102741.00;4980408;28;20264;-47
2022/12/17 22:28:15;;;;;;;29.83;20.23;;;;;;;-5.22;100.00;102744.34;4990296;28;20205;-48
2022/12/17 22:33:25;;;;;;;35.35;20.98;;;;;;;-5.25;100.00;102725.88;4979578;28;20281;-45
2022/12/17 22:35:50;;;;;;;38.35;24.83;;;;;;;-5.28;100.00;102726.59;4986402;28;20178;-46
2022/12/17 22:38:16;;;;;;;40.35;23.55;;;;;;;-5.26;100.00;102719.75;4978033;28;20752;-47
2022/12/17 22:40:41;;;;;;;34.10;21.08;;;;;;;-5.27;100.00;102723.19;4976008;28;20197;-45
2022/12/17 22:43:29;;;;;;;30.80;21.65;;;;;;;-5.27;100.00;102728.44;4982819;28;20645;-44
2022/12/17 22:46:03;;;;;;;38.95;25.80;;;;;;;-5.26;100.00;102734.53;4982642;28;20477;-46
2022/12/17 22:48:31;;;;;;;44.92;25.90;;;;;;;-5.26;100.00;102739.78;4979802;28;20220;-44
2022/12/17 22:50:57;;;;;;;30.63;20.38;;;;;;;-5.30;100.00;102738.69;4980255;28;20229;-45
2022/12/17 22:53:23;;;;;;;89.05;39.60;;;;;;;-5.24;100.00;102740.75;4986884;28;20184;-47
2022/12/17 22:55:49;;;;;;;32.08;21.77;;;;;;;-5.31;100.00;102743.81;4982054;28;20280;-47
2022/12/17 22:58:16;;;;;;;32.00;19.00;;;;;;;-5.35;100.00;102734.91;4981896;28;20564;-47
2022/12/17 23:00:41;;;;;;;29.90;18.92;;;;;;;-5.31;100.00;102738.59;4983154;28;20889;-45
2022/12/17 23:03:07;;;;;;;30.30;20.25;;;;;;;-5.33;100.00;102751.59;4983566;28;20193;-45
2022/12/17 23:05:32;;;;;;;29.80;19.38;;;;;;;-5.38;100.00;102737.34;4982218;28;20229;-46
2022/12/17 23:07:59;;;;;;;30.58;19.02;;;;;;;-5.40;100.00;102741.56;4979270;28;20217;-47
2022/12/17 23:10:26;;;;;;;29.88;19.55;;;;;;;-5.41;100.00;102745.00;4980403;28;20558;-47
2022/12/17 23:12:53;;;;;;;30.95;18.17;;;;;;;-5.45;100.00;102733.47;4979710;28;20177;-46
2022/12/17 23:15:33;;;;;;;27.48;19.13;;;;;;;-5.45;100.00;102728.25;4982491;28;20276;-46
2022/12/17 23:18:00;;;;;;;27.33;18.10;;;;;;;-5.44;100.00;102722.22;4977026;28;20182;-47
2022/12/17 23:20:28;;;;;;;25.58;18.83;;;;;;;-5.31;100.00;102733.34;4985411;28;20189;-45
2022/12/17 23:22:54;;;;;;;25.55;18.27;;;;;;;-5.30;100.00;102737.78;4978063;28;20174;-46
2022/12/17 23:25:20;;;;;;;32.75;19.45;;;;;;;-5.34;100.00;102733.19;4979783;28;20213;-47
2022/12/17 23:27:46;;;;;;;27.27;18.35;;;;;;;-5.34;100.00;102730.59;4979645;28;20276;-46
2022/12/17 23:30:12;;;;;;;23.38;16.60;;;;;;;-5.34;100.00;102733.19;4983435;28;20576;-47
2022/12/17 23:32:38;;;;;;;33.67;19.38;;;;;;;-5.30;100.00;102729.94;4979060;28;20206;-47
2022/12/17 23:35:04;;;;;;;28.13;17.65;;;;;;;-5.31;100.00;102717.69;4982754;28;20706;-46
2022/12/17 23:37:30;;;;;;;32.60;19.60;;;;;;;-5.21;100.00;102720.91;4984004;28;20182;-46
2022/12/17 23:39:55;;;;;;;26.20;16.88;;;;;;;-5.22;100.00;102728.69;4980561;28;20659;-47
2022/12/17 23:42:21;;;;;;;30.90;19.15;;;;;;;-5.23;100.00;102729.47;4983842;28;20208;-45
2022/12/17 23:44:46;;;;;;;25.67;15.68;;;;;;;-5.26;100.00;102729.31;4986430;28;20234;-44
2022/12/17 23:47:12;;;;;;;26.27;15.90;;;;;;;-5.25;100.00;102726.81;4982433;28;20536;-47
2022/12/17 23:49:37;;;;;;;27.27;16.02;;;;;;;-5.25;100.00;102721.56;4979384;28;20257;-44
2022/12/17 23:52:03;;;;;;;23.95;15.48;;;;;;;-5.24;100.00;102736.44;4980570;28;20190;-46
2022/12/17 23:54:29;;;;;;;24.08;15.00;;;;;;;-5.21;100.00;102727.84;4980219;28;20194;-46
2022/12/17 23:56:54;;;;;;;27.38;16.60;;;;;;;-5.22;100.00;102720.84;4973804;28;20679;-45
2022/12/17 23:59:20;;;;;;;20.63;15.52;;;;;;;-5.24;100.00;102730.31;4979914;28;20214;-44
